Terminal Aerodrome Forecast
Issued by NWS

Home | Current Version | Previous Version | Text Only | Print | Product List | Glossary On
Versions: 1 2 3 4 5 6 7 8 9 10 11 12 13 14 15 16 17
000
FTUS41 KPBZ 271700
TAFZZV
TAF
KZZV 271731Z 2718/2818 19005KT P6SM BKN070
     FM272200 20010KT P6SM VCSH OVC035
      TEMPO 2800/2803 5SM -SHRA OVC015
     FM280300 25009KT P6SM VCSH SCT008 OVC015
     FM280700 27004KT 4SM -RA BR OVC007
     FM281500 30006KT P6SM OVC020=

USA.gov is the U.S. government's official web portal to all federal, state and local government web resources and services.